Time;durP1;ratioP1;P1;durP2;ratioP2;P2;SDS_P1;SDS_P2;PMS_P1;PMS_P2;Temp;Humidity;BMP_temperature;BMP_pressure;BME280_temperature;BME280_humidity;BME280_pressure;Samples;Min_cycle;Max_cycle;Signal;HPM_P1;HPM_P2
2022/08/22 00:02:25;;;;;;;3.57;2.97;;;;;;;19.49;61.05;98487.34;4983902;28;102875;-60
2022/08/22 00:05:02;;;;;;;5.32;4.00;;;;;;;19.27;62.11;98483.53;4985311;28;103599;-60
2022/08/22 00:07:44;;;;;;;4.20;3.80;;;;;;;19.26;62.18;98486.38;4979047;28;103168;-60
2022/08/22 00:10:16;;;;;;;4.43;4.03;;;;;;;18.89;64.29;98489.63;4985826;28;102765;-59
2022/08/22 00:13:02;;;;;;;4.78;4.28;;;;;;;18.96;64.30;98491.44;4983048;28;104357;-59
2022/08/22 00:15:33;;;;;;;4.05;3.60;;;;;;;19.08;63.27;98490.09;4980474;28;103831;-60
2022/08/22 00:18:15;;;;;;;4.47;4.07;;;;;;;19.06;63.68;98486.72;4963851;28;103254;-60
2022/08/22 00:20:52;;;;;;;3.47;3.17;;;;;;;19.24;62.26;98483.03;4964620;28;102841;-60
2022/08/22 00:23:27;;;;;;;3.22;2.92;;;;;;;19.30;62.00;98477.00;4963421;28;103969;-60
2022/08/22 00:26:01;;;;;;;4.15;3.50;;;;;;;19.33;61.88;98484.69;4957802;28;103259;-60
2022/08/22 00:28:35;;;;;;;4.20;3.53;;;;;;;19.34;62.00;98476.47;4981374;28;104140;-71
2022/08/22 00:31:13;;;;;;;5.57;4.15;;;;;;;19.15;63.39;98478.69;4986756;28;102969;-70
2022/08/22 00:33:48;;;;;;;4.50;4.10;;;;;;;19.01;63.95;98477.53;4981366;28;102633;-70
2022/08/22 00:36:25;;;;;;;4.68;4.05;;;;;;;18.65;65.97;98485.09;4961480;28;103088;-70
2022/08/22 00:39:06;;;;;;;4.00;3.60;;;;;;;18.67;65.29;98472.38;4983317;28;103376;-70
2022/08/22 00:41:49;;;;;;;4.15;3.65;;;;;;;18.57;64.75;98469.03;4986430;28;102667;-71
2022/08/22 00:44:41;;;;;;;4.43;3.40;;;;;;;18.79;63.64;98467.53;4963973;28;103022;-70
2022/08/22 00:47:23;;;;;;;4.87;3.40;;;;;;;18.86;63.49;98474.69;4981386;28;103995;-70
2022/08/22 00:50:26;;;;;;;3.57;3.20;;;;;;;18.93;63.03;98473.03;4975171;28;103490;-70
2022/08/22 00:53:22;;;;;;;5.43;3.60;;;;;;;18.80;63.59;98463.84;4987977;28;102824;-70
2022/08/22 00:56:03;;;;;;;5.43;4.20;;;;;;;18.30;64.74;98472.00;4962988;28;104325;-70
2022/08/22 00:58:56;;;;;;;4.13;3.67;;;;;;;17.90;65.47;98468.22;4978068;28;103243;-71
2022/08/22 01:01:31;;;;;;;6.00;3.70;;;;;;;17.84;66.07;98471.53;4974407;28;103202;-70
2022/08/22 01:04:25;;;;;;;3.40;3.10;;;;;;;18.24;65.00;98468.13;4980287;28;102636;-60
2022/08/22 01:07:08;;;;;;;3.17;2.90;;;;;;;18.58;63.66;98475.22;4963016;28;102725;-70
2022/08/22 01:09:46;;;;;;;2.90;2.50;;;;;;;18.70;62.68;98474.72;4974695;28;103276;-70
2022/08/22 01:12:30;;;;;;;4.43;4.03;;;;;;;18.65;64.32;98463.69;4982901;28;102987;-59
2022/08/22 01:15:02;;;;;;;4.90;4.03;;;;;;;18.62;64.41;98464.00;4973781;28;102724;-60
2022/08/22 01:17:56;;;;;;;5.93;4.00;;;;;;;18.34;65.74;98467.97;4973619;28;103876;-70
2022/08/22 01:20:49;;;;;;;6.07;4.40;;;;;;;17.30;69.88;98472.75;4966580;28;103405;-71
2022/08/22 01:24:04;;;;;;;6.10;4.63;;;;;;;16.96;71.93;98471.00;4982072;28;103285;-71
2022/08/22 01:27:10;;;;;;;7.72;4.97;;;;;;;16.76;73.93;98468.53;4979341;28;103049;-70
2022/08/22 01:30:15;;;;;;;7.57;4.80;;;;;;;16.50;75.40;98472.13;4958870;28;103358;-70
2022/08/22 01:33:19;;;;;;;7.05;5.03;;;;;;;16.88;74.29;98469.13;4977988;28;103264;-70
2022/08/22 01:36:24;;;;;;;5.82;4.38;;;;;;;17.45;71.86;98470.34;4990958;28;103215;-60
2022/08/22 01:39:18;;;;;;;4.72;4.22;;;;;;;17.64;70.86;98464.78;4976482;28;102942;-59
2022/08/22 01:42:19;;;;;;;3.53;3.22;;;;;;;17.90;68.87;98468.22;4975610;28;102751;-59
2022/08/22 01:45:03;;;;;;;5.50;4.70;;;;;;;17.82;69.65;98465.50;4976764;28;103269;-70
2022/08/22 01:47:38;;;;;;;6.28;4.65;;;;;;;17.40;71.90;98469.97;4979329;28;103183;-71
2022/08/22 01:50:17;;;;;;;5.43;4.53;;;;;;;17.43;71.80;98469.66;4980443;28;103587;-70
2022/08/22 01:52:50;;;;;;;4.05;3.38;;;;;;;17.70;70.41;98480.16;4956739;28;102921;-70
2022/08/22 01:55:30;;;;;;;4.27;3.70;;;;;;;17.98;68.65;98483.44;4979213;28;103245;-70
2022/08/22 01:58:03;;;;;;;3.97;3.20;;;;;;;18.08;67.41;98480.63;4972062;28;103209;-70
2022/08/22 02:00:51;;;;;;;5.47;4.00;;;;;;;18.10;66.22;98482.13;4955457;28;102732;-70
2022/08/22 02:03:25;;;;;;;5.22;4.28;;;;;;;17.64;69.18;98480.78;4957042;28;102768;-71
2022/08/22 02:05:59;;;;;;;5.63;4.33;;;;;;;17.35;71.79;98482.94;4974336;28;104044;-70
2022/08/22 02:08:37;;;;;;;6.15;4.60;;;;;;;17.19;72.13;98472.19;4978348;28;103238;-70
2022/08/22 02:11:09;;;;;;;6.20;4.55;;;;;;;17.28;72.55;98479.25;4960657;28;102727;-71
2022/08/22 02:13:53;;;;;;;7.18;5.30;;;;;;;16.70;75.13;98476.34;4978073;28;103051;-71
2022/08/22 02:16:35;;;;;;;5.88;4.93;;;;;;;16.70;75.90;98484.34;4975556;28;103304;-71
2022/08/22 02:19:11;;;;;;;6.30;5.10;;;;;;;16.79;75.45;98478.91;4981910;28;103189;-70
2022/08/22 02:21:45;;;;;;;6.20;5.17;;;;;;;16.53;76.44;98480.69;4978026;28;103007;-71
2022/08/22 02:24:24;;;;;;;7.43;5.18;;;;;;;16.71;75.79;98481.50;4982157;28;102659;-71
2022/08/22 02:27:05;;;;;;;5.97;5.00;;;;;;;16.00;79.63;98495.81;4976921;28;103522;-70
2022/08/22 02:29:40;;;;;;;6.10;5.50;;;;;;;16.21;78.73;98483.88;4958392;28;103320;-70
2022/08/22 02:32:22;;;;;;;5.68;5.18;;;;;;;16.11;78.60;98482.25;4978622;28;102657;-71
2022/08/22 02:35:05;;;;;;;5.77;4.90;;;;;;;16.24;78.36;98482.72;4979860;28;102943;-70
2022/08/22 02:37:38;;;;;;;5.70;4.82;;;;;;;16.67;75.60;98474.81;4985792;28;103398;-71
2022/08/22 02:40:16;;;;;;;4.90;4.40;;;;;;;16.95;73.93;98480.88;4982664;28;103428;-70
2022/08/22 02:42:50;;;;;;;5.07;4.57;;;;;;;16.77;75.04;98480.06;4954872;28;102968;-70
2022/08/22 02:45:37;;;;;;;5.60;4.87;;;;;;;16.73;75.25;98471.53;4973931;28;104036;-70
2022/08/22 02:48:17;;;;;;;4.82;4.32;;;;;;;16.95;73.93;98462.19;4980766;28;103714;-70
2022/08/22 02:50:53;;;;;;;4.93;4.03;;;;;;;17.13;72.55;98465.63;4975195;28;103265;-71
2022/08/22 02:53:28;;;;;;;5.55;4.90;;;;;;;17.16;72.34;98462.66;4975938;28;102632;-72
2022/08/22 02:56:03;;;;;;;3.30;3.00;;;;;;;17.29;71.52;98467.59;4982131;28;102942;-71
2022/08/22 02:58:42;;;;;;;4.03;3.63;;;;;;;17.28;71.61;98457.88;4976565;28;102944;-71
2022/08/22 03:01:22;;;;;;;4.28;3.85;;;;;;;17.24;70.71;98464.53;4976047;28;103282;-70
2022/08/22 03:03:52;;;;;;;4.47;4.07;;;;;;;16.90;73.28;98466.31;4975042;28;102980;-71
2022/08/22 03:06:36;;;;;;;5.45;4.65;;;;;;;16.86;73.77;98454.28;4981555;28;102748;-60
2022/08/22 03:09:20;;;;;;;7.07;5.07;;;;;;;16.89;74.01;98461.97;4976819;28;103055;-60
2022/08/22 03:12:05;;;;;;;5.33;4.60;;;;;;;16.61;75.58;98459.44;4976941;28;103298;-60
2022/08/22 03:14:42;;;;;;;6.93;5.35;;;;;;;16.67;74.82;98466.00;4977510;28;102710;-60
2022/08/22 03:17:15;;;;;;;5.05;4.55;;;;;;;16.77;75.18;98464.91;4954509;28;102841;-60
2022/08/22 03:19:49;;;;;;;5.32;4.70;;;;;;;16.68;75.42;98465.81;4973953;28;103324;-60
2022/08/22 03:22:22;;;;;;;6.53;5.70;;;;;;;15.84;79.87;98471.63;4970543;28;103023;-59
2022/08/22 03:24:55;;;;;;;6.88;5.47;;;;;;;15.76;81.83;98466.19;4977806;28;102678;-60
2022/08/22 03:27:28;;;;;;;6.77;5.87;;;;;;;16.33;78.50;98471.16;4975821;28;102964;-59
2022/08/22 03:30:05;;;;;;;5.80;5.27;;;;;;;16.43;77.61;98466.56;4978153;28;103519;-59
2022/08/22 03:32:50;;;;;;;6.20;5.20;;;;;;;16.47;77.24;98467.94;4960572;28;103254;-60
2022/08/22 03:35:38;;;;;;;5.90;4.70;;;;;;;16.65;77.51;98466.13;4971983;28;102656;-59
2022/08/22 03:38:17;;;;;;;5.97;5.30;;;;;;;16.53;77.25;98461.16;4978085;28;102746;-59
2022/08/22 03:41:26;;;;;;;6.50;5.90;;;;;;;15.77;81.93;98467.88;4973441;28;103376;-60
2022/08/22 03:44:12;;;;;;;6.40;5.60;;;;;;;16.15;79.43;98467.63;4979457;28;103194;-59
2022/08/22 03:47:07;;;;;;;7.70;5.78;;;;;;;16.20;78.71;98466.19;4973487;28;103123;-60
2022/08/22 03:50:13;;;;;;;6.53;5.60;;;;;;;16.34;78.53;98464.81;4973789;28;103118;-60
2022/08/22 03:53:13;;;;;;;6.25;5.65;;;;;;;16.13;78.29;98474.94;4955419;28;104541;-59
2022/08/22 03:56:22;;;;;;;8.38;5.80;;;;;;;16.25;78.26;98468.41;4953935;28;103426;-58
2022/08/22 03:59:28;;;;;;;7.15;5.50;;;;;;;16.29;78.65;98466.25;4976985;28;102584;-70
2022/08/22 04:02:20;;;;;;;7.65;6.10;;;;;;;15.91;81.53;98475.38;4981078;28;102710;-70
2022/08/22 04:05:37;;;;;;;7.10;5.18;;;;;;;16.29;78.74;98472.44;4982598;28;103389;-70
2022/08/22 04:08:49;;;;;;;5.65;4.90;;;;;;;16.45;77.38;98475.25;4984321;28;103186;-70
2022/08/22 04:11:41;;;;;;;3.92;3.55;;;;;;;16.69;75.20;98482.66;4973946;28;102694;-58
2022/08/22 04:14:27;;;;;;;6.20;5.10;;;;;;;16.62;74.30;98479.75;4961700;28;102778;-59
2022/08/22 04:17:20;;;;;;;4.30;3.90;;;;;;;16.65;74.23;98486.63;4977643;28;104760;-58
2022/08/22 04:20:26;;;;;;;5.97;4.23;;;;;;;16.69;73.77;98490.66;4976876;28;102953;-58
2022/08/22 04:23:42;;;;;;;5.40;4.75;;;;;;;16.43;77.22;98487.06;4980009;28;102728;-59
2022/08/22 04:26:15;;;;;;;5.17;4.67;;;;;;;16.41;77.34;98495.22;4971280;28;104533;-58
2022/08/22 04:28:47;;;;;;;6.00;5.03;;;;;;;16.44;77.36;98494.91;4960558;28;103593;-58
2022/08/22 04:31:22;;;;;;;7.57;5.55;;;;;;;16.44;77.27;98494.06;4980022;28;103183;-58
2022/08/22 04:33:54;;;;;;;6.07;5.28;;;;;;;16.36;77.32;98492.19;4975721;28;103143;-58
2022/08/22 04:36:29;;;;;;;5.90;5.07;;;;;;;16.42;77.80;98494.22;4976676;28;102832;-57
2022/08/22 04:39:02;;;;;;;7.13;5.68;;;;;;;15.97;80.38;98501.44;4962058;28;103262;-69
2022/08/22 04:41:36;;;;;;;6.68;5.95;;;;;;;15.75;82.91;98497.31;4976364;28;103191;-70
2022/08/22 04:44:10;;;;;;;8.40;6.50;;;;;;;15.26;85.00;98503.81;4960566;28;103116;-69
2022/08/22 04:46:47;;;;;;;7.63;6.00;;;;;;;15.38;85.96;98493.81;4981991;28;103523;-70
2022/08/22 04:49:24;;;;;;;8.57;6.60;;;;;;;15.24;86.36;98503.09;4972651;28;103327;-69
2022/08/22 04:52:02;;;;;;;7.55;6.43;;;;;;;14.90;87.81;98509.91;4975530;28;103326;-71
2022/08/22 04:54:42;;;;;;;8.87;6.80;;;;;;;14.97;88.03;98505.69;4976045;28;102686;-71
2022/08/22 04:57:25;;;;;;;7.50;6.65;;;;;;;14.73;89.26;98513.28;4963560;28;102841;-70
2022/08/22 04:59:59;;;;;;;9.13;7.22;;;;;;;14.75;89.64;98511.31;4963303;28;104123;-71
2022/08/22 05:02:28;;;;;;;5.90;5.27;;;;;;;15.61;85.78;98517.28;4977910;28;103215;-71
2022/08/22 05:05:02;;;;;;;11.10;7.20;;;;;;;15.33;85.99;98512.88;4976529;28;103074;-71
2022/08/22 05:07:35;;;;;;;8.85;7.05;;;;;;;15.04;87.54;98522.75;4978708;28;103128;-70
2022/08/22 05:10:08;;;;;;;10.17;7.00;;;;;;;14.64;90.25;98514.97;4978445;28;103702;-59
2022/08/22 05:12:43;;;;;;;8.90;6.67;;;;;;;14.87;88.96;98520.84;4981138;28;103059;-59
2022/08/22 05:15:17;;;;;;;8.23;6.63;;;;;;;14.97;88.59;98516.31;4977261;28;102854;-59
2022/08/22 05:17:56;;;;;;;7.30;5.90;;;;;;;15.46;86.71;98518.75;4958740;28;102766;-70
2022/08/22 05:20:27;;;;;;;7.60;6.13;;;;;;;15.56;85.52;98514.22;4976292;28;103307;-70
2022/08/22 05:22:58;;;;;;;6.82;6.00;;;;;;;15.52;85.73;98522.66;4975944;28;103221;-70
2022/08/22 05:25:31;;;;;;;7.25;6.20;;;;;;;15.50;86.22;98517.47;4972196;28;102614;-70
2022/08/22 05:28:07;;;;;;;7.10;6.38;;;;;;;15.75;84.60;98517.81;4975991;28;103998;-70
2022/08/22 05:30:36;;;;;;;7.53;6.43;;;;;;;15.65;84.47;98528.50;4955815;28;102826;-70
2022/08/22 05:33:16;;;;;;;7.65;6.85;;;;;;;15.59;85.50;98521.94;4975156;28;103265;-59
2022/08/22 05:35:49;;;;;;;9.15;6.50;;;;;;;15.53;85.85;98521.66;4975877;28;102752;-59
2022/08/22 05:38:29;;;;;;;8.27;6.63;;;;;;;15.40;86.41;98524.63;4979067;28;103667;-59
2022/08/22 05:41:05;;;;;;;9.70;6.85;;;;;;;15.39;86.82;98520.28;4972766;28;103793;-59
2022/08/22 05:43:39;;;;;;;8.18;6.30;;;;;;;15.88;84.53;98524.47;4977448;28;103212;-70
2022/08/22 05:46:16;;;;;;;8.98;6.30;;;;;;;15.75;84.84;98533.78;4978683;28;103201;-60
2022/08/22 05:48:53;;;;;;;8.30;6.70;;;;;;;15.59;86.17;98523.75;4982241;28;103106;-59
2022/08/22 05:51:25;;;;;;;10.30;6.03;;;;;;;15.78;86.00;98528.13;4956016;28;103310;-59
2022/08/22 05:54:07;;;;;;;8.05;6.20;;;;;;;15.94;85.22;98531.03;4974282;28;103194;-60
2022/08/22 05:56:38;;;;;;;7.07;6.32;;;;;;;16.14;84.31;98529.94;4953254;28;102827;-70
2022/08/22 05:59:21;;;;;;;7.10;6.13;;;;;;;16.86;81.11;98520.97;4978174;28;103150;-70
2022/08/22 06:02:00;;;;;;;7.65;5.43;;;;;;;17.18;79.89;98516.72;4976079;28;104060;-70
2022/08/22 06:04:35;;;;;;;5.15;4.43;;;;;;;17.65;77.76;98525.22;4978972;28;103911;-71
2022/08/22 06:07:11;;;;;;;5.47;4.97;;;;;;;17.71;76.84;98523.75;4975079;28;102658;-70
2022/08/22 06:10:01;;;;;;;7.30;5.80;;;;;;;17.72;76.19;98518.22;4985496;28;102905;-70
2022/08/22 06:12:36;;;;;;;6.70;5.73;;;;;;;17.18;79.21;98521.22;4976710;28;103346;-59
2022/08/22 06:15:11;;;;;;;6.00;5.40;;;;;;;17.75;77.02;98515.25;4973221;28;102633;-59
2022/08/22 06:17:44;;;;;;;4.35;4.05;;;;;;;18.28;75.19;98522.09;4956806;28;102658;-59
2022/08/22 06:20:20;;;;;;;5.60;4.95;;;;;;;18.51;73.73;98523.19;4984543;28;102759;-59
2022/08/22 06:22:54;;;;;;;6.85;5.10;;;;;;;18.62;72.89;98514.84;4973138;28;103268;-70
2022/08/22 06:25:31;;;;;;;8.27;5.75;;;;;;;18.70;72.36;98522.03;4976019;28;103971;-59
2022/08/22 06:28:04;;;;;;;5.53;4.80;;;;;;;18.62;72.07;98525.53;4972611;28;102964;-59
2022/08/22 06:30:33;;;;;;;6.95;5.60;;;;;;;18.57;73.24;98530.56;4977816;28;102721;-70
2022/08/22 06:33:06;;;;;;;5.53;5.00;;;;;;;19.11;71.03;98527.22;4979217;28;104145;-59
2022/08/22 06:38:51;;;;;;;5.72;4.70;;;;;;;19.43;70.10;98521.00;4972141;28;102908;-70
2022/08/22 06:41:26;;;;;;;6.70;4.38;;;;;;;19.61;68.31;98523.50;4977688;28;102580;-71
2022/08/22 06:43:56;;;;;;;4.50;4.10;;;;;;;19.89;68.03;98522.06;4955443;28;104550;-69
2022/08/22 06:46:28;;;;;;;6.60;5.38;;;;;;;20.05;67.53;98526.50;4975621;28;103310;-71
2022/08/22 06:49:02;;;;;;;6.97;5.07;;;;;;;19.90;67.30;98522.91;4974876;28;102966;-70
2022/08/22 06:51:34;;;;;;;8.30;6.03;;;;;;;19.37;68.83;98521.66;4978102;28;103032;-71
2022/08/22 06:54:06;;;;;;;8.05;5.45;;;;;;;19.56;68.64;98520.50;4981296;28;103327;-71
2022/08/22 06:56:39;;;;;;;8.15;5.95;;;;;;;19.98;66.84;98526.38;4955925;28;104135;-70
2022/08/22 06:59:10;;;;;;;6.63;5.53;;;;;;;20.00;66.62;98524.34;4955291;28;102708;-71
2022/08/22 07:01:44;;;;;;;8.27;5.33;;;;;;;20.09;65.61;98528.69;4954426;28;103090;-70
2022/08/22 07:04:12;;;;;;;8.32;5.97;;;;;;;20.20;65.17;98541.69;4959765;28;104484;-70
2022/08/22 07:06:46;;;;;;;7.68;4.95;;;;;;;20.39;65.57;98536.91;4979893;28;103209;-70
2022/08/22 07:09:22;;;;;;;6.47;4.80;;;;;;;20.57;64.75;98540.19;4974801;28;102606;-71
2022/08/22 07:11:51;;;;;;;7.18;5.38;;;;;;;20.83;63.93;98546.00;4960741;28;103962;-71
2022/08/22 07:14:28;;;;;;;7.60;5.18;;;;;;;21.14;62.38;98530.69;4978458;28;103256;-71
2022/08/22 07:16:59;;;;;;;5.43;4.50;;;;;;;21.24;62.19;98531.28;4977450;28;103252;-60
2022/08/22 07:19:29;;;;;;;6.20;4.53;;;;;;;21.20;60.60;98537.19;4982326;28;102654;-60
2022/08/22 07:22:09;;;;;;;6.43;4.13;;;;;;;21.37;60.82;98528.81;4979711;28;102917;-61
2022/08/22 07:24:48;;;;;;;5.50;4.00;;;;;;;21.46;59.92;98528.72;4980976;28;102902;-60
2022/08/22 07:27:31;;;;;;;8.23;4.25;;;;;;;21.51;60.07;98526.31;4977796;28;103503;-60
2022/08/22 07:30:04;;;;;;;4.83;3.90;;;;;;;21.73;58.03;98525.38;4974216;28;102704;-61
2022/08/22 07:32:56;;;;;;;4.93;3.70;;;;;;;22.07;57.54;98528.38;4979884;28;104473;-60
2022/08/22 07:35:50;;;;;;;5.30;3.80;;;;;;;22.32;57.18;98524.34;4979005;28;103284;-70
2022/08/22 07:38:32;;;;;;;7.07;4.10;;;;;;;22.61;55.36;98527.97;4975734;28;103297;-70
2022/08/22 07:41:09;;;;;;;6.03;3.80;;;;;;;22.81;54.40;98532.56;4960192;28;102757;-70
2022/08/22 07:43:43;;;;;;;5.30;3.53;;;;;;;23.34;54.34;98523.09;4971454;28;103006;-71
2022/08/22 07:46:22;;;;;;;5.00;3.90;;;;;;;23.33;54.10;98524.13;4981051;28;103105;-70
2022/08/22 07:48:55;;;;;;;8.10;4.10;;;;;;;23.11;54.56;98530.56;4974068;28;103304;-71
2022/08/22 07:51:43;;;;;;;4.60;3.45;;;;;;;24.23;52.38;98534.88;4954051;28;102852;-61
2022/08/22 07:54:16;;;;;;;5.28;3.80;;;;;;;24.49;51.15;98534.97;4981414;28;103254;-71
2022/08/22 07:56:51;;;;;;;4.50;3.30;;;;;;;24.85;50.97;98523.88;4970460;28;103226;-61
2022/08/22 07:59:21;;;;;;;5.23;3.70;;;;;;;24.65;51.11;98523.81;4975700;28;103337;-61
2022/08/22 08:01:54;;;;;;;5.80;3.90;;;;;;;25.19;49.77;98528.28;4962141;28;102884;-71
2022/08/22 08:04:28;;;;;;;6.67;3.80;;;;;;;25.48;49.11;98533.31;4979941;28;103083;-61
2022/08/22 08:07:01;;;;;;;5.05;3.65;;;;;;;25.97;48.36;98534.66;4981322;28;103376;-61
2022/08/22 08:09:33;;;;;;;4.22;3.65;;;;;;;26.15;47.21;98537.56;4980234;28;103382;-61
2022/08/22 08:12:05;;;;;;;4.93;3.38;;;;;;;26.46;46.59;98546.59;4979858;28;102669;-71
2022/08/22 08:14:36;;;;;;;7.63;3.70;;;;;;;26.32;46.96;98541.44;4978895;28;102614;-70
2022/08/22 08:17:13;;;;;;;4.13;3.20;;;;;;;26.78;46.94;98541.22;4979983;28;103350;-71
2022/08/22 08:19:43;;;;;;;4.68;3.65;;;;;;;26.89;45.87;98535.94;4984238;28;103219;-62
2022/08/22 08:22:17;;;;;;;4.10;3.75;;;;;;;26.98;45.65;98540.06;4983075;28;102748;-62
2022/08/22 08:24:48;;;;;;;5.28;4.15;;;;;;;27.35;45.77;98542.91;4957802;28;103827;-61
2022/08/22 08:30:12;;;;;;;4.15;3.75;;;;;;;27.90;44.15;98541.19;4982245;28;103183;-61
2022/08/22 08:32:46;;;;;;;5.07;3.37;;;;;;;28.14;44.14;98535.72;4984698;28;103792;-62
2022/08/22 08:35:22;;;;;;;5.53;4.03;;;;;;;27.91;45.47;98534.69;4979613;28;104037;-63
2022/08/22 08:37:57;;;;;;;4.83;3.70;;;;;;;28.41;44.19;98535.41;4973859;28;103364;-63
2022/08/22 08:40:54;;;;;;;6.20;4.10;;;;;;;28.29;43.31;98529.91;4958255;28;103333;-62
2022/08/22 08:43:30;;;;;;;4.78;3.47;;;;;;;28.94;43.34;98530.88;4978562;28;103021;-62
2022/08/22 08:46:24;;;;;;;5.07;4.00;;;;;;;28.20;44.74;98533.97;4977150;28;102870;-62
2022/08/22 08:49:11;;;;;;;6.13;4.35;;;;;;;28.60;43.80;98534.31;4975506;28;103455;-71
2022/08/22 08:52:03;;;;;;;5.47;3.88;;;;;;;29.81;42.75;98521.13;4977879;28;103209;-62
2022/08/22 08:54:54;;;;;;;4.23;3.33;;;;;;;30.37;41.64;98515.81;4976508;28;103155;-62
2022/08/22 08:57:37;;;;;;;4.70;3.67;;;;;;;30.12;41.61;98517.97;4982893;28;103719;-62
2022/08/22 09:00:11;;;;;;;4.00;3.57;;;;;;;30.51;39.95;98510.94;4964178;28;103181;-62
2022/08/22 09:03:08;;;;;;;3.80;3.40;;;;;;;31.19;39.83;98519.00;4982893;28;102940;-62
2022/08/22 09:06:01;;;;;;;4.70;4.13;;;;;;;29.70;41.38;98514.56;4960772;28;102961;-63
2022/08/22 09:09:07;;;;;;;4.50;3.77;;;;;;;30.54;40.84;98512.34;4959002;28;102887;-63
2022/08/22 09:12:15;;;;;;;4.55;4.03;;;;;;;30.00;41.19;98503.59;4975241;28;103259;-63
2022/08/22 09:15:25;;;;;;;4.40;4.00;;;;;;;30.94;41.23;98510.38;4979528;28;103259;-63
2022/08/22 09:18:28;;;;;;;4.90;4.40;;;;;;;30.74;39.99;98504.53;4963352;28;102921;-63
2022/08/22 09:21:23;;;;;;;4.57;4.18;;;;;;;30.39;41.28;98512.88;4979180;28;102830;-63
2022/08/22 09:24:28;;;;;;;4.28;3.70;;;;;;;31.46;40.28;98508.28;4962154;28;103288;-63
2022/08/22 09:26:59;;;;;;;4.30;3.80;;;;;;;31.31;39.18;98500.66;4979079;28;103159;-63
2022/08/22 09:29:39;;;;;;;4.40;4.00;;;;;;;31.19;39.69;98507.28;4958185;28;102743;-63
2022/08/22 09:32:36;;;;;;;6.23;4.20;;;;;;;31.18;40.22;98501.00;4983728;28;102835;-63
2022/08/22 09:35:09;;;;;;;4.82;4.32;;;;;;;31.19;39.38;98507.28;4970859;28;103696;-63
2022/08/22 09:37:49;;;;;;;4.68;3.92;;;;;;;31.26;39.49;98507.94;4975322;28;103221;-63
2022/08/22 09:40:24;;;;;;;4.40;4.00;;;;;;;31.45;39.24;98502.00;4979917;28;102948;-63
2022/08/22 09:43:01;;;;;;;4.27;3.90;;;;;;;31.46;39.35;98503.66;4978436;28;103003;-63
2022/08/22 09:45:47;;;;;;;4.80;4.40;;;;;;;31.32;39.43;98496.03;4978210;28;103412;-63
2022/08/22 09:48:35;;;;;;;4.47;4.07;;;;;;;31.56;39.43;98497.53;4979055;28;103203;-63
2022/08/22 09:51:14;;;;;;;4.68;4.28;;;;;;;30.26;41.45;98508.47;4973599;28;102907;-63
2022/08/22 09:54:25;;;;;;;5.43;4.35;;;;;;;31.37;38.37;98499.69;4955921;28;103983;-64
2022/08/22 09:57:18;;;;;;;4.75;4.35;;;;;;;31.99;39.21;98499.53;4972601;28;103305;-72
2022/08/22 10:00:15;;;;;;;4.53;4.13;;;;;;;32.15;37.63;98498.66;4975206;28;103262;-71
2022/08/22 10:02:57;;;;;;;4.68;4.38;;;;;;;31.55;38.67;98502.16;4953294;28;102861;-71
2022/08/22 10:05:37;;;;;;;4.32;4.03;;;;;;;31.71;38.32;98502.41;4982195;28;103059;-71
2022/08/22 10:08:19;;;;;;;4.32;4.03;;;;;;;31.30;39.03;98490.03;4972518;28;103330;-72
2022/08/22 10:11:17;;;;;;;4.60;4.30;;;;;;;30.83;39.89;98497.63;4981997;28;103257;-71
2022/08/22 10:13:58;;;;;;;4.55;4.25;;;;;;;31.78;38.13;98489.38;4962881;28;102711;-64
2022/08/22 10:16:55;;;;;;;3.90;3.60;;;;;;;32.17;37.66;98490.22;4976263;28;102893;-64
2022/08/22 10:19:28;;;;;;;4.38;3.97;;;;;;;32.55;35.35;98499.19;4976028;28;104266;-63
2022/08/22 10:22:24;;;;;;;4.23;3.83;;;;;;;32.44;36.63;98494.66;4975738;28;103237;-72
2022/08/22 10:25:08;;;;;;;4.05;3.65;;;;;;;32.62;35.56;98490.75;4975745;28;103660;-71
2022/08/22 10:27:55;;;;;;;4.78;4.20;;;;;;;30.21;38.03;98489.31;4974323;28;103561;-71
2022/08/22 10:30:27;;;;;;;4.43;4.13;;;;;;;32.42;35.68;98480.41;4978526;28;104371;-72
2022/08/22 10:33:03;;;;;;;5.22;4.03;;;;;;;32.63;34.78;98482.31;4975357;28;103198;-63
2022/08/22 10:35:37;;;;;;;4.13;3.60;;;;;;;33.08;33.04;98471.03;4979531;28;103087;-64
2022/08/22 10:38:16;;;;;;;4.32;3.92;;;;;;;32.78;34.08;98461.69;4973179;28;103857;-64
2022/08/22 10:40:52;;;;;;;3.80;3.50;;;;;;;33.35;34.14;98468.22;4982449;28;103108;-64
2022/08/22 10:43:30;;;;;;;5.23;4.70;;;;;;;33.25;33.71;98463.50;4974182;28;103329;-65
2022/08/22 10:46:03;;;;;;;4.43;4.03;;;;;;;33.17;34.43;98463.16;4981999;28;102709;-64
2022/08/22 10:48:46;;;;;;;4.25;3.47;;;;;;;31.11;34.90;98467.59;4975627;28;103115;-64
2022/08/22 10:51:20;;;;;;;3.90;3.60;;;;;;;31.16;35.47;98462.22;4979412;28;103913;-64
2022/08/22 10:54:14;;;;;;;3.53;3.22;;;;;;;32.06;33.91;98465.50;4974828;28;103217;-71
2022/08/22 10:56:54;;;;;;;4.60;3.20;;;;;;;33.50;32.07;98451.06;4958334;28;103262;-64
2022/08/22 10:59:40;;;;;;;4.80;3.43;;;;;;;33.81;32.05;98444.72;4961074;28;102872;-64
2022/08/22 11:02:33;;;;;;;3.22;2.92;;;;;;;33.59;32.43;98441.31;4980306;28;104106;-64
2022/08/22 11:05:24;;;;;;;3.47;3.17;;;;;;;33.19;33.47;98436.34;4980000;28;103490;-64
2022/08/22 11:08:05;;;;;;;4.13;3.72;;;;;;;33.30;32.89;98435.31;4974410;28;102747;-64
2022/08/22 11:10:50;;;;;;;4.73;3.67;;;;;;;33.03;33.10;98437.28;4976911;28;104024;-64
2022/08/22 11:13:38;;;;;;;3.88;3.58;;;;;;;32.67;33.60;98441.63;4980484;28;103057;-64
2022/08/22 11:16:24;;;;;;;3.70;3.40;;;;;;;33.72;31.92;98429.88;4975640;28;103821;-64
2022/08/22 11:19:11;;;;;;;3.75;3.45;;;;;;;33.64;32.67;98431.19;4958501;28;103139;-64
2022/08/22 11:21:59;;;;;;;4.00;3.70;;;;;;;33.89;32.23;98435.16;4975906;28;104208;-64
2022/08/22 11:25:03;;;;;;;4.70;3.30;;;;;;;32.60;32.09;98433.63;4972615;28;103182;-64
2022/08/22 11:27:44;;;;;;;3.72;3.38;;;;;;;32.76;32.13;98437.31;4971957;28;103240;-64
2022/08/22 11:30:18;;;;;;;3.90;3.50;;;;;;;32.96;31.57;98433.94;4974859;28;103025;-64
2022/08/22 11:33:09;;;;;;;3.63;3.10;;;;;;;32.54;32.09;98423.72;4956637;28;102690;-64
2022/08/22 11:35:45;;;;;;;3.73;3.40;;;;;;;33.24;31.89;98425.44;4978348;28;103277;-65
2022/08/22 11:38:24;;;;;;;4.53;2.95;;;;;;;33.14;31.97;98422.63;4979329;28;102980;-64
2022/08/22 11:41:03;;;;;;;4.25;3.50;;;;;;;32.51;33.18;98424.19;4977429;28;102953;-64
2022/08/22 11:43:48;;;;;;;3.50;3.20;;;;;;;33.39;31.96;98420.06;4974482;28;102911;-64
2022/08/22 11:46:28;;;;;;;3.88;3.30;;;;;;;32.65;32.44;98413.69;4974959;28;103312;-65
2022/08/22 11:49:13;;;;;;;3.70;3.25;;;;;;;33.61;30.61;98409.81;4957802;28;103196;-64
2022/08/22 11:51:59;;;;;;;3.50;3.20;;;;;;;33.82;30.61;98408.03;4974286;28;102920;-64
2022/08/22 11:54:40;;;;;;;3.40;3.10;;;;;;;33.75;30.60;98408.25;4979640;28;103021;-64
2022/08/22 11:57:17;;;;;;;3.80;3.00;;;;;;;32.94;31.66;98403.28;4955978;28;103025;-64
2022/08/22 12:00:08;;;;;;;4.07;3.42;;;;;;;33.35;31.33;98397.03;4970601;28;103427;-64
2022/08/22 12:02:47;;;;;;;3.63;3.30;;;;;;;33.18;31.25;98415.56;4978907;28;102908;-64
2022/08/22 12:05:20;;;;;;;3.72;3.40;;;;;;;32.22;32.43;98414.59;4975284;28;104211;-64
2022/08/22 12:08:01;;;;;;;3.53;3.23;;;;;;;31.90;33.70;98406.28;4979398;28;103368;-64
2022/08/22 12:10:33;;;;;;;3.50;3.20;;;;;;;32.83;30.81;98399.66;4977544;28;103215;-64
2022/08/22 12:13:08;;;;;;;3.40;3.10;;;;;;;33.97;30.67;98399.00;4978764;28;104522;-64
2022/08/22 12:15:48;;;;;;;3.10;2.90;;;;;;;33.16;31.29;98395.81;4973641;28;102993;-64
2022/08/22 12:18:43;;;;;;;4.50;3.55;;;;;;;32.94;31.83;98395.06;4978496;28;103549;-65
2022/08/22 12:21:47;;;;;;;4.78;3.40;;;;;;;32.78;31.38;98393.31;4978956;28;103244;-64
2022/08/22 12:24:32;;;;;;;3.60;3.30;;;;;;;33.33;30.56;98374.59;4972286;28;102797;-65
2022/08/22 12:27:24;;;;;;;3.28;2.70;;;;;;;33.17;31.05;98379.16;4957827;28;102698;-64
2022/08/22 12:30:11;;;;;;;4.77;3.30;;;;;;;32.51;31.83;98388.66;4953630;28;106226;-64
2022/08/22 12:33:17;;;;;;;4.15;3.10;;;;;;;32.63;30.64;98388.53;4980422;28;103186;-64
2022/08/22 12:36:11;;;;;;;3.83;2.97;;;;;;;33.54;29.49;98384.56;4970859;28;103171;-64
2022/08/22 12:39:23;;;;;;;3.17;2.70;;;;;;;34.04;28.70;98377.69;4959804;28;102863;-65